Time;durP1;ratioP1;P1;durP2;ratioP2;P2;SDS_P1;SDS_P2;PMS_P1;PMS_P2;Temp;Humidity;BMP_temperature;BMP_pressure;BME280_temperature;BME280_humidity;BME280_pressure;Samples;Min_cycle;Max_cycle;Signal;HPM_P1;HPM_P2
2021/01/12 00:00:46;;;;;;;85.55;36.20;;;;;;;-4.66;90.81;100603.22;5036697;28;20037;-66
2021/01/12 00:03:11;;;;;;;78.82;34.47;;;;;;;-4.67;90.92;100603.22;5036897;28;20492;-66
2021/01/12 00:05:37;;;;;;;81.90;36.47;;;;;;;-4.66;90.94;100605.84;5036613;28;20033;-66
2021/01/12 00:08:07;;;;;;;77.50;34.65;;;;;;;-4.65;90.43;100594.56;5036753;28;20037;-66
2021/01/12 00:10:33;;;;;;;84.18;35.75;;;;;;;-4.65;90.63;100584.13;5037063;28;20045;-74
2021/01/12 00:12:59;;;;;;;86.38;35.30;;;;;;;-4.56;90.32;100572.06;5036800;28;20033;-66
2021/01/12 00:15:24;;;;;;;87.70;34.35;;;;;;;-4.42;90.37;100596.47;5037025;28;20466;-65
2021/01/12 00:17:50;;;;;;;86.13;34.25;;;;;;;-4.54;89.61;100546.88;5054180;28;20033;-66
2021/01/12 00:20:15;;;;;;;85.45;35.65;;;;;;;-4.30;89.46;100591.31;5036653;28;20036;-66
2021/01/12 00:22:41;;;;;;;86.55;35.05;;;;;;;-4.37;89.67;100592.13;5054273;28;20035;-65
2021/01/12 00:25:08;;;;;;;84.00;34.83;;;;;;;-4.37;89.83;100586.91;5036661;28;20052;-66
2021/01/12 00:27:33;;;;;;;84.65;33.58;;;;;;;-4.41;89.62;100598.19;5036415;28;20086;-74
2021/01/12 00:29:59;;;;;;;83.72;33.00;;;;;;;-4.43;89.54;100585.16;5036292;28;20474;-66
2021/01/12 00:32:26;;;;;;;78.35;32.67;;;;;;;-4.41;89.83;100593.00;5054312;28;20055;-66
2021/01/12 00:34:55;;;;;;;77.35;33.50;;;;;;;-4.44;90.08;100582.53;5036046;28;20103;-66
2021/01/12 00:37:23;;;;;;;83.30;34.30;;;;;;;-4.36;89.66;100588.66;5054142;28;20069;-66
2021/01/12 00:39:49;;;;;;;81.57;33.13;;;;;;;-4.50;89.88;100567.75;5053721;28;20036;-66
2021/01/12 00:42:15;;;;;;;77.63;31.13;;;;;;;-4.47;89.86;100578.19;5054088;28;20040;-66
2021/01/12 00:44:40;;;;;;;83.05;32.65;;;;;;;-4.42;89.95;100588.66;5053662;28;20029;-67
2021/01/12 00:47:07;;;;;;;83.70;32.78;;;;;;;-4.75;90.31;100551.09;5020259;28;20040;-66
2021/01/12 00:49:33;;;;;;;81.53;32.60;;;;;;;-4.49;90.52;100586.84;5036182;28;20075;-66
2021/01/12 00:51:58;;;;;;;80.85;33.13;;;;;;;-4.68;90.43;100568.50;5019318;28;20413;-66
2021/01/12 00:54:24;;;;;;;83.60;33.35;;;;;;;-4.58;90.55;100586.78;5053718;28;20058;-66
2021/01/12 00:56:54;;;;;;;80.90;33.45;;;;;;;-4.59;90.38;100587.66;5035552;28;20549;-66
2021/01/12 00:59:20;;;;;;;78.30;31.08;;;;;;;-4.67;90.11;100585.88;5053901;28;20033;-67
2021/01/12 01:01:46;;;;;;;76.72;34.00;;;;;;;-4.87;90.45;100556.22;5053429;28;20040;-66
2021/01/12 01:04:13;;;;;;;83.00;33.53;;;;;;;-5.01;90.59;100542.28;5053837;28;20051;-66
2021/01/12 01:06:39;;;;;;;85.90;34.92;;;;;;;-4.96;90.55;100561.38;5053443;28;20033;-65
2021/01/12 01:09:05;;;;;;;84.78;33.28;;;;;;;-5.26;90.78;100508.25;5053999;28;20420;-65
2021/01/12 01:11:30;;;;;;;74.47;30.27;;;;;;;-5.18;90.86;100504.00;5036175;28;20033;-64
2021/01/12 01:13:57;;;;;;;82.82;32.70;;;;;;;-4.93;90.37;100556.19;5019152;28;20033;-65
2021/01/12 01:16:30;;;;;;;76.03;29.92;;;;;;;-4.89;90.50;100568.38;5035510;28;20043;-65
2021/01/12 01:18:56;;;;;;;82.30;32.80;;;;;;;-5.31;90.73;100499.53;5035325;28;20041;-66
2021/01/12 01:21:21;;;;;;;82.05;33.47;;;;;;;-5.01;91.10;100560.47;5035603;28;20083;-65
2021/01/12 01:23:47;;;;;;;78.22;32.25;;;;;;;-5.05;90.80;100556.09;5035225;28;20033;-65
2021/01/12 01:26:12;;;;;;;80.03;32.15;;;;;;;-5.06;90.77;100567.38;5035554;28;20060;-66
2021/01/12 01:28:37;;;;;;;82.97;34.28;;;;;;;-5.11;90.72;100561.28;5035670;28;20116;-75
2021/01/12 01:31:03;;;;;;;81.25;32.17;;;;;;;-5.00;90.69;100570.91;5053007;28;20367;-66
2021/01/12 01:33:28;;;;;;;77.70;32.22;;;;;;;-5.08;90.81;100561.28;5053114;28;20040;-66
2021/01/12 01:35:54;;;;;;;80.22;33.05;;;;;;;-5.01;89.99;100573.50;5052753;28;20037;-65
2021/01/12 01:38:19;;;;;;;77.63;31.65;;;;;;;-5.35;90.73;100517.72;5052854;28;20053;-65
2021/01/12 01:40:45;;;;;;;77.47;31.00;;;;;;;-5.06;90.34;100569.97;5034890;28;20036;-66
2021/01/12 01:43:22;;;;;;;77.70;30.65;;;;;;;-5.05;90.27;100574.31;5035255;28;20078;-66
2021/01/12 01:45:48;;;;;;;82.60;31.02;;;;;;;-5.07;90.08;100587.31;5052609;28;20037;-67
2021/01/12 01:48:14;;;;;;;73.95;30.67;;;;;;;-5.13;89.93;100569.03;5053078;28;20033;-66
2021/01/12 01:50:40;;;;;;;74.20;30.60;;;;;;;-5.53;89.86;100515.81;5035322;28;20041;-74
2021/01/12 01:53:10;;;;;;;75.88;29.75;;;;;;;-5.34;90.32;100567.13;5053037;28;20078;-66
2021/01/12 01:55:36;;;;;;;76.65;29.10;;;;;;;-5.32;90.46;100573.19;5053045;28;20033;-65
2021/01/12 01:58:03;;;;;;;79.13;27.00;;;;;;;-5.21;90.25;100563.78;5052965;28;20040;-66
2021/01/12 02:00:28;;;;;;;76.63;29.23;;;;;;;-5.29;90.08;100549.84;5052879;28;20036;-66
2021/01/12 02:03:09;;;;;;;74.03;28.17;;;;;;;-5.50;90.01;100534.94;5052962;28;20057;-66
2021/01/12 02:05:42;;;;;;;73.28;26.13;;;;;;;-5.40;90.23;100548.88;5052962;28;20087;-67
2021/01/12 02:08:51;;;;;;;75.20;27.88;;;;;;;-5.55;90.81;100557.41;5052805;28;20103;-66
2021/01/12 02:11:19;;;;;;;104.22;26.77;;;;;;;-5.62;90.84;100557.31;4952636;29;20039;-67
2021/01/12 02:13:44;;;;;;;91.40;27.35;;;;;;;-6.06;91.65;100492.81;5038276;28;20041;-66
2021/01/12 02:16:11;;;;;;;102.93;27.50;;;;;;;-5.69;91.68;100555.50;5034991;28;20441;-66
2021/01/12 02:18:37;;;;;;;75.55;27.42;;;;;;;-5.66;91.39;100550.34;5053022;28;20045;-67
2021/01/12 02:21:04;;;;;;;107.93;29.60;;;;;;;-5.63;91.39;100545.19;5052116;28;20456;-67
2021/01/12 02:23:34;;;;;;;93.28;27.65;;;;;;;-5.63;91.38;100539.97;5053085;28;20127;-66
2021/01/12 02:26:01;;;;;;;87.60;27.30;;;;;;;-5.73;91.34;100525.16;5052403;28;20045;-66
2021/01/12 02:28:27;;;;;;;100.80;27.08;;;;;;;-5.55;91.16;100540.94;5052708;28;20103;-66
2021/01/12 02:30:52;;;;;;;78.60;25.23;;;;;;;-5.64;90.88;100522.66;5052350;28;20036;-66
2021/01/12 02:33:18;;;;;;;88.80;26.90;;;;;;;-5.66;90.49;100513.97;5055227;28;20078;-66
2021/01/12 02:35:47;;;;;;;85.65;25.58;;;;;;;-5.58;90.58;100520.13;5038621;28;20041;-68
2021/01/12 02:38:12;;;;;;;82.82;26.60;;;;;;;-5.82;90.54;100479.16;5056224;28;20052;-66
2021/01/12 02:40:38;;;;;;;143.98;29.13;;;;;;;-5.72;91.05;100503.50;5056351;28;20367;-68
2021/01/12 02:43:03;;;;;;;88.90;26.48;;;;;;;-5.62;91.13;100518.34;5038377;28;20474;-67
2021/01/12 02:45:30;;;;;;;97.97;28.52;;;;;;;-5.67;91.18;100492.31;5056464;28;20044;-67
2021/01/12 02:47:59;;;;;;;96.05;27.98;;;;;;;-5.46;91.33;100507.22;5055954;28;20471;-66
2021/01/12 02:50:24;;;;;;;74.55;25.10;;;;;;;-5.51;91.31;100488.09;5038827;28;20039;-66
2021/01/12 02:52:50;;;;;;;97.82;26.38;;;;;;;-5.54;91.66;100494.16;5055808;28;20025;-66
2021/01/12 02:55:15;;;;;;;78.72;26.15;;;;;;;-5.34;91.29;100490.84;5056275;28;20115;-67
2021/01/12 02:57:41;;;;;;;79.10;25.27;;;;;;;-5.21;90.67;100488.38;5056299;28;20041;-67
2021/01/12 03:00:13;;;;;;;119.93;26.85;;;;;;;-5.27;89.91;100484.84;5055659;28;20044;-67
2021/01/12 03:02:38;;;;;;;91.07;25.20;;;;;;;-5.28;90.22;100485.72;5055953;28;20029;-66
2021/01/12 03:05:05;;;;;;;85.95;24.77;;;;;;;-5.51;90.62;100459.50;5055502;28;20044;-67
2021/01/12 03:07:31;;;;;;;87.57;25.77;;;;;;;-5.40;90.78;100473.50;5038026;28;20036;-68
2021/01/12 03:09:56;;;;;;;102.47;28.13;;;;;;;-5.53;91.02;100458.63;5055910;28;20041;-66
2021/01/12 03:12:21;;;;;;;122.05;28.85;;;;;;;-5.52;91.57;100476.84;5038031;28;20025;-67
2021/01/12 03:14:47;;;;;;;184.85;31.83;;;;;;;-5.43;91.51;100470.84;5037617;28;20033;-67
2021/01/12 03:17:13;;;;;;;99.20;26.20;;;;;;;-5.40;91.57;100464.78;5055551;28;20052;-67
2021/01/12 03:19:40;;;;;;;123.55;26.33;;;;;;;-5.40;91.14;100465.69;5055752;28;20035;-67
2021/01/12 03:22:05;;;;;;;100.50;27.33;;;;;;;-5.67;91.25;100418.69;5055230;28;20037;-67
2021/01/12 03:24:30;;;;;;;95.07;28.27;;;;;;;-5.35;91.42;100466.56;5037731;28;20043;-67
2021/01/12 03:26:56;;;;;;;95.57;25.17;;;;;;;-5.30;91.14;100462.31;5037554;28;20120;-67
2021/01/12 03:29:21;;;;;;;133.15;27.02;;;;;;;-5.27;90.95;100472.72;5037312;28;20068;-67
2021/01/12 03:31:47;;;;;;;118.20;26.17;;;;;;;-5.40;91.40;100475.19;5020631;28;20040;-67
2021/01/12 03:34:12;;;;;;;96.22;24.38;;;;;;;-5.35;91.66;100478.72;5055383;28;20028;-65
2021/01/12 03:36:38;;;;;;;104.95;24.40;;;;;;;-5.43;91.66;100457.84;5037616;28;20128;-66
2021/01/12 03:39:04;;;;;;;88.50;23.90;;;;;;;-5.38;92.27;100469.16;5037264;28;20039;-66
2021/01/12 03:41:31;;;;;;;104.68;26.00;;;;;;;-5.51;92.50;100454.31;5037555;28;20029;-66
2021/01/12 03:43:57;;;;;;;116.22;28.20;;;;;;;-5.51;92.54;100467.31;5053514;28;20040;-66
2021/01/12 03:46:23;;;;;;;124.95;25.23;;;;;;;-5.41;92.47;100461.31;5055355;28;20420;-66
2021/01/12 03:48:49;;;;;;;101.47;25.00;;;;;;;-5.35;92.60;100476.97;5036999;28;20036;-71
2021/01/12 03:51:14;;;;;;;81.22;26.05;;;;;;;-5.31;92.88;100473.53;5037503;28;20418;-66
2021/01/12 03:53:40;;;;;;;94.30;26.95;;;;;;;-5.20;92.59;100474.50;5055361;28;20033;-65
2021/01/12 03:56:05;;;;;;;97.20;26.05;;;;;;;-5.14;92.22;100462.38;5054959;28;20033;-64
2021/01/12 03:58:30;;;;;;;81.65;26.33;;;;;;;-5.43;92.24;100418.84;5054903;28;20033;-67
2021/01/12 04:00:56;;;;;;;85.80;26.33;;;;;;;-5.16;92.06;100464.13;5054469;28;20033;-66
2021/01/12 04:03:22;;;;;;;96.93;26.10;;;;;;;-5.16;92.23;100458.91;5054901;28;20086;-66
2021/01/12 04:05:47;;;;;;;86.90;23.02;;;;;;;-5.12;91.90;100465.84;5037103;28;20083;-65
2021/01/12 04:08:13;;;;;;;83.35;24.55;;;;;;;-5.18;91.90;100458.91;5054652;28;20492;-66
2021/01/12 04:10:38;;;;;;;128.32;26.55;;;;;;;-5.53;91.94;100412.72;5036857;28;20076;-66
2021/01/12 04:13:04;;;;;;;80.75;25.38;;;;;;;-5.38;91.97;100408.50;5036465;28;20128;-67
2021/01/12 04:15:29;;;;;;;81.32;24.25;;;;;;;-5.06;92.13;100452.91;5036870;28;20025;-67
2021/01/12 04:17:55;;;;;;;95.93;26.35;;;;;;;-5.24;92.42;100445.84;5036560;28;20037;-67
2021/01/12 04:20:21;;;;;;;144.27;29.42;;;;;;;-5.56;92.06;100406.63;5036691;28;20037;-65
2021/01/12 04:22:46;;;;;;;72.85;22.88;;;;;;;-5.38;92.49;100417.16;5020232;28;20037;-66
2021/01/12 04:25:12;;;;;;;68.65;23.30;;;;;;;-5.36;92.91;100437.97;5019836;28;20033;-66
2021/01/12 04:27:38;;;;;;;76.13;25.20;;;;;;;-5.33;93.35;100430.19;5054324;28;20485;-67
2021/01/12 04:30:05;;;;;;;97.93;24.45;;;;;;;-5.08;92.80;100449.44;5036580;28;20037;-69
2021/01/12 04:32:31;;;;;;;81.07;23.40;;;;;;;-5.14;92.30;100436.38;5019877;28;20037;-66
2021/01/12 04:34:56;;;;;;;76.13;22.98;;;;;;;-5.10;92.46;100446.81;5053877;28;20523;-66
2021/01/12 04:37:22;;;;;;;87.50;23.42;;;;;;;-5.10;91.95;100441.63;5054273;28;20049;-66
2021/01/12 04:39:47;;;;;;;74.15;24.10;;;;;;;-5.21;92.00;100420.75;5036434;28;20040;-67
2021/01/12 04:42:13;;;;;;;79.03;24.48;;;;;;;-5.05;91.65;100436.44;5053695;28;20167;-68
2021/01/12 04:44:38;;;;;;;85.15;23.55;;;;;;;-5.02;91.50;100444.25;5053907;28;20043;-65
2021/01/12 04:47:07;;;;;;;75.07;24.08;;;;;;;-5.13;91.45;100433.78;5053551;28;20135;-67
2021/01/12 04:49:32;;;;;;;74.35;23.30;;;;;;;-5.07;91.79;100440.75;5020007;28;20037;-67
2021/01/12 04:51:58;;;;;;;71.57;23.48;;;;;;;-5.04;91.84;100443.38;5035982;28;20388;-68
2021/01/12 04:54:34;;;;;;;88.60;22.65;;;;;;;-5.28;91.98;100418.97;5019696;28;20033;-67
2021/01/12 04:57:00;;;;;;;94.43;25.70;;;;;;;-5.23;92.33;100437.19;5053438;28;20040;-67
2021/01/12 04:59:30;;;;;;;66.15;20.60;;;;;;;-5.67;91.90;100361.50;5053554;28;20039;-68
2021/01/12 05:01:56;;;;;;;84.80;24.13;;;;;;;-5.23;92.07;100421.59;5053560;28;20382;-67
2021/01/12 05:04:22;;;;;;;79.15;23.88;;;;;;;-5.34;92.12;100402.44;5053888;28;20029;-67
2021/01/12 05:06:48;;;;;;;74.80;23.92;;;;;;;-5.20;92.43;100422.50;5053912;28;20103;-68
2021/01/12 05:09:19;;;;;;;90.95;23.98;;;;;;;-5.41;92.14;100378.13;5053352;28;20031;-67
2021/01/12 05:11:45;;;;;;;81.03;25.30;;;;;;;-5.16;91.77;100420.78;5053432;28;20429;-66
2021/01/12 05:14:13;;;;;;;105.07;25.10;;;;;;;-5.32;92.39;100406.78;5035193;28;20033;-66
2021/01/12 05:16:50;;;;;;;77.75;24.15;;;;;;;-5.24;92.05;100399.91;5054055;28;20362;-66
2021/01/12 05:19:22;;;;;;;78.65;25.08;;;;;;;-5.12;92.00;100422.50;5053053;28;20382;-65
2021/01/12 05:21:48;;;;;;;73.78;23.05;;;;;;;-5.04;91.67;100417.34;5035636;28;20375;-65
2021/01/12 05:24:19;;;;;;;79.10;23.85;;;;;;;-5.00;91.34;100420.00;5053193;28;20041;-67
2021/01/12 05:26:45;;;;;;;73.43;23.65;;;;;;;-4.91;90.96;100413.97;5053440;28;20048;-66
2021/01/12 05:29:10;;;;;;;85.50;24.38;;;;;;;-5.02;91.09;100400.94;5018837;28;20037;-66
2021/01/12 05:31:38;;;;;;;72.50;22.67;;;;;;;-4.99;91.05;100415.66;5035343;28;20033;-66
2021/01/12 05:34:09;;;;;;;79.55;22.38;;;;;;;-5.12;91.49;100419.03;5052727;28;20043;-66
2021/01/12 05:36:47;;;;;;;82.20;23.65;;;;;;;-5.25;92.24;100413.78;5035083;28;20029;-67
2021/01/12 05:39:19;;;;;;;88.70;23.50;;;;;;;-5.27;92.41;100409.44;5052563;28;20466;-67
2021/01/12 05:41:47;;;;;;;109.13;25.77;;;;;;;-5.54;92.45;100364.19;5053189;28;20078;-66
2021/01/12 05:44:15;;;;;;;82.93;23.58;;;;;;;-5.19;92.07;100408.63;5052679;28;20029;-66
2021/01/12 05:46:43;;;;;;;83.13;25.60;;;;;;;-5.18;92.53;100409.50;5052950;28;20149;-67
2021/01/12 05:49:10;;;;;;;76.00;24.70;;;;;;;-5.10;91.83;100402.59;5052599;28;20070;-66
2021/01/12 05:51:44;;;;;;;72.18;22.60;;;;;;;-5.20;91.31;100382.63;5053030;28;20136;-66
2021/01/12 05:54:19;;;;;;;77.10;23.95;;;;;;;-5.08;91.33;100393.06;5052729;28;20033;-66
2021/01/12 05:56:48;;;;;;;73.75;22.92;;;;;;;-5.47;91.17;100333.91;5052717;28;20395;-65
2021/01/12 05:59:23;;;;;;;75.40;22.40;;;;;;;-5.15;91.21;100388.69;5052381;28;20394;-66
2021/01/12 06:01:56;;;;;;;86.25;22.65;;;;;;;-5.16;90.71;100391.28;5052619;28;20067;-67
2021/01/12 06:04:23;;;;;;;72.35;22.25;;;;;;;-5.29;90.86;100390.38;5052610;28;20032;-67
2021/01/12 06:06:53;;;;;;;130.02;24.60;;;;;;;-5.32;91.05;100392.91;5051856;28;20037;-66
2021/01/12 06:09:20;;;;;;;72.43;24.38;;;;;;;-5.32;91.82;100391.19;5034664;28;20127;-65
2021/01/12 06:11:48;;;;;;;88.50;24.23;;;;;;;-5.17;91.77;100380.03;5052732;28;20071;-67
2021/01/12 06:14:20;;;;;;;156.32;26.30;;;;;;;-5.12;91.05;100387.84;5052021;28;20037;-67
2021/01/12 06:16:46;;;;;;;99.10;23.40;;;;;;;-5.30;91.59;100386.88;5034964;28;20052;-66
2021/01/12 06:19:26;;;;;;;89.70;22.25;;;;;;;-5.37;91.54;100374.72;5051814;28;20048;-66
2021/01/12 06:21:54;;;;;;;77.15;22.67;;;;;;;-5.02;91.03;100384.41;5052727;28;20021;-66
2021/01/12 06:24:42;;;;;;;77.30;21.98;;;;;;;-5.13;90.77;100389.56;5052144;28;20067;-66
2021/01/12 06:27:33;;;;;;;61.47;21.25;;;;;;;-5.20;90.63;100357.47;5003386;28;20045;-66
2021/01/12 06:30:07;;;;;;;90.25;22.17;;;;;;;-5.43;90.21;100335.66;5052242;28;20025;-67
2021/01/12 06:32:35;;;;;;;63.97;21.05;;;;;;;-5.20;90.30;100359.22;5034684;28;20039;-66
2021/01/12 06:35:08;;;;;;;69.65;21.65;;;;;;;-5.23;89.75;100373.03;5052273;28;20037;-67
2021/01/12 06:37:37;;;;;;;62.65;20.30;;;;;;;-5.03;89.43;100387.88;5052704;28;20060;-66
2021/01/12 06:40:06;;;;;;;77.15;22.88;;;;;;;-5.00;90.38;100387.91;5052307;28;20175;-66
2021/01/12 06:42:32;;;;;;;79.38;22.48;;;;;;;-4.95;89.98;100389.66;5052765;28;20090;-66
2021/01/12 06:44:59;;;;;;;72.80;23.45;;;;;;;-4.98;89.88;100381.84;5052412;28;20112;-66
2021/01/12 06:47:29;;;;;;;69.55;20.92;;;;;;;-5.00;89.36;100356.69;5052363;28;20359;-66
2021/01/12 06:50:16;;;;;;;69.60;23.42;;;;;;;-4.93;89.49;100372.31;5052174;28;20033;-66
2021/01/12 06:52:46;;;;;;;95.82;24.02;;;;;;;-4.95;89.64;100375.78;5052427;28;20025;-66
2021/01/12 06:55:14;;;;;;;82.60;22.10;;;;;;;-4.87;89.09;100368.88;5052230;28;20040;-68
2021/01/12 06:57:44;;;;;;;77.75;22.90;;;;;;;-4.97;89.42;100382.72;5034890;28;20132;-66
2021/01/12 07:00:10;;;;;;;78.53;22.67;;;;;;;-5.08;89.78;100374.88;5051979;28;20063;-66
2021/01/12 07:02:36;;;;;;;91.22;24.77;;;;;;;-5.31;90.00;100350.44;5018108;28;20094;-65
2021/01/12 07:05:08;;;;;;;68.05;22.75;;;;;;;-5.01;90.57;100391.38;5052389;28;20037;-67
2021/01/12 07:07:50;;;;;;;72.75;22.42;;;;;;;-4.75;88.88;100391.47;5052230;28;20069;-66
2021/01/12 07:10:20;;;;;;;64.15;21.42;;;;;;;-4.80;88.58;100386.28;5051989;28;20029;-65
2021/01/12 07:12:47;;;;;;;59.42;19.38;;;;;;;-4.78;88.98;100381.94;5051972;28;20029;-66
2021/01/12 07:15:22;;;;;;;73.78;23.63;;;;;;;-4.77;88.84;100388.00;5052343;28;20426;-66
2021/01/12 07:17:53;;;;;;;80.07;22.95;;;;;;;-5.16;89.59;100336.69;5052710;28;20078;-67
2021/01/12 07:20:23;;;;;;;73.47;24.42;;;;;;;-4.84;89.48;100387.09;5055327;28;20025;-66
2021/01/12 07:23:16;;;;;;;90.05;24.15;;;;;;;-4.70;89.03;100392.38;5038127;28;20067;-66
2021/01/12 07:25:44;;;;;;;93.65;23.48;;;;;;;-4.74;89.31;100386.28;5051225;28;20060;-67
2021/01/12 07:28:09;;;;;;;78.35;23.67;;;;;;;-4.77;89.79;100386.28;5055480;28;20064;-67
2021/01/12 07:30:37;;;;;;;78.20;23.95;;;;;;;-4.88;90.01;100361.94;5055664;28;20122;-66
2021/01/12 07:33:05;;;;;;;77.97;24.70;;;;;;;-4.70;89.40;100355.94;5055661;28;20079;-66
2021/01/12 07:35:32;;;;;;;77.30;24.80;;;;;;;-4.46;88.96;100366.41;5037676;28;20048;-66
2021/01/12 07:37:58;;;;;;;78.03;24.77;;;;;;;-4.64;87.80;100335.13;5041917;28;20424;-68
2021/01/12 07:40:24;;;;;;;79.53;23.45;;;;;;;-4.61;88.25;100367.25;5074194;28;20039;-66
2021/01/12 07:42:52;;;;;;;71.43;24.23;;;;;;;-4.56;88.14;100371.59;5075559;28;20059;-67
2021/01/12 07:45:21;;;;;;;67.43;21.90;;;;;;;-4.62;88.56;100354.25;5075111;28;20036;-67
2021/01/12 07:47:54;;;;;;;74.72;24.73;;;;;;;-4.47;87.97;100363.81;5074328;28;20032;-67
2021/01/12 07:50:24;;;;;;;69.28;23.88;;;;;;;-4.65;88.19;100364.63;5074924;28;20044;-68
2021/01/12 07:52:50;;;;;;;64.85;21.40;;;;;;;-4.57;87.88;100357.72;5075522;28;20033;-68
2021/01/12 07:55:15;;;;;;;74.25;23.80;;;;;;;-4.70;88.46;100369.81;5075264;28;20047;-68
2021/01/12 07:57:41;;;;;;;70.47;24.27;;;;;;;-4.97;88.34;100318.53;5073973;28;20037;-68
2021/01/12 08:00:12;;;;;;;68.55;22.45;;;;;;;-4.74;88.82;100344.63;5073790;28;20032;-67
2021/01/12 08:02:39;;;;;;;71.82;24.60;;;;;;;-4.48;88.06;100354.25;5075117;28;20370;-67
2021/01/12 08:05:09;;;;;;;69.13;23.05;;;;;;;-4.35;87.23;100340.38;5075051;28;20060;-67
2021/01/12 08:07:35;;;;;;;73.25;24.17;;;;;;;-4.44;86.69;100335.16;5074809;28;20382;-67
2021/01/12 08:10:02;;;;;;;67.97;22.55;;;;;;;-4.20;86.85;100357.78;5073686;28;20066;-67
2021/01/12 08:12:27;;;;;;;66.05;23.23;;;;;;;-4.54;85.93;100300.44;5073465;28;20044;-67
2021/01/12 08:14:54;;;;;;;67.40;24.25;;;;;;;-4.24;87.26;100367.34;5073811;28;20032;-66
2021/01/12 08:17:26;;;;;;;70.95;24.30;;;;;;;-4.52;87.11;100323.91;5068447;28;20520;-67
2021/01/12 08:19:55;;;;;;;72.40;24.15;;;;;;;-4.36;87.41;100352.53;5061964;28;20037;-64
2021/01/12 08:22:23;;;;;;;80.68;25.85;;;;;;;-4.34;86.15;100342.16;5055003;28;20029;-65
2021/01/12 08:24:49;;;;;;;71.88;25.17;;;;;;;-4.37;86.19;100353.41;5036896;28;20518;-65
2021/01/12 08:27:19;;;;;;;68.88;25.23;;;;;;;-4.22;86.29;100376.03;5053583;28;20029;-65
2021/01/12 08:29:44;;;;;;;75.57;24.63;;;;;;;-4.30;86.44;100348.22;5053668;28;20037;-66
2021/01/12 08:32:13;;;;;;;73.57;25.02;;;;;;;-4.10;85.90;100365.63;5054908;28;20163;-65
2021/01/12 08:34:45;;;;;;;69.28;24.92;;;;;;;-4.46;86.18;100336.91;5054387;28;20394;-66
2021/01/12 08:37:13;;;;;;;70.82;24.40;;;;;;;-4.16;86.22;100355.19;5048868;28;20057;-65
2021/01/12 08:39:39;;;;;;;73.57;25.52;;;;;;;-3.96;86.18;100368.22;5000702;28;20044;-64
2021/01/12 08:42:07;;;;;;;79.70;26.50;;;;;;;-3.92;85.29;100367.38;5017006;28;20143;-65
2021/01/12 08:44:37;;;;;;;76.88;26.40;;;;;;;-4.10;85.67;100349.97;5034103;28;20030;-66
2021/01/12 08:47:06;;;;;;;83.85;26.58;;;;;;;-3.97;85.28;100345.63;5023905;28;20032;-66
2021/01/12 08:49:36;;;;;;;72.15;25.02;;;;;;;-3.91;85.13;100355.19;5054263;28;20449;-67
2021/01/12 08:52:04;;;;;;;75.70;25.08;;;;;;;-3.97;85.06;100332.59;5054343;28;20036;-66
2021/01/12 08:54:30;;;;;;;69.60;25.13;;;;;;;-3.69;85.68;100356.91;5054064;28;20033;-67
2021/01/12 08:56:57;;;;;;;68.45;25.23;;;;;;;-3.90;84.99;100336.97;5054023;28;20040;-64
2021/01/12 08:59:28;;;;;;;80.75;26.52;;;;;;;-4.07;85.55;100331.72;5035906;28;20478;-66
2021/01/12 09:01:53;;;;;;;75.97;25.98;;;;;;;-3.82;86.29;100339.56;5036058;28;20425;-66
2021/01/12 09:04:19;;;;;;;71.70;25.27;;;;;;;-3.77;85.89;100338.66;5032201;28;20051;-65
2021/01/12 09:06:45;;;;;;;75.40;27.33;;;;;;;-3.71;85.67;100335.22;5042940;28;20033;-68
2021/01/12 09:09:14;;;;;;;68.40;24.65;;;;;;;-3.95;84.90;100276.16;5022202;28;20065;-69
2021/01/12 09:11:45;;;;;;;67.57;25.48;;;;;;;-3.68;84.86;100331.72;5015963;28;20132;-70
2021/01/12 09:14:12;;;;;;;73.45;26.88;;;;;;;-3.92;85.54;100296.13;5034123;28;20057;-69
2021/01/12 09:16:39;;;;;;;69.00;26.50;;;;;;;-3.60;85.26;100332.59;5034064;28;20041;-69
2021/01/12 09:19:33;;;;;;;68.28;24.80;;;;;;;-3.43;85.20;100329.94;5016698;28;20092;-69
2021/01/12 09:22:10;;;;;;;71.05;26.38;;;;;;;-3.40;86.13;100319.50;5016102;28;20624;-69
2021/01/12 09:24:38;;;;;;;69.00;26.00;;;;;;;-3.31;85.91;100307.31;5034194;28;20036;-68
2021/01/12 09:27:04;;;;;;;74.75;27.65;;;;;;;-3.24;85.88;100313.38;5033942;28;20116;-69
2021/01/12 09:29:37;;;;;;;72.80;26.75;;;;;;;-3.20;83.97;100307.25;5016216;28;20148;-67
2021/01/12 09:32:02;;;;;;;69.53;26.37;;;;;;;-3.23;84.49;100310.75;5033572;28;20053;-68
2021/01/12 09:34:28;;;;;;;79.22;27.13;;;;;;;-3.20;84.40;100304.66;5016074;28;20290;-69
2021/01/12 09:36:53;;;;;;;72.78;26.60;;;;;;;-3.40;84.24;100286.47;5046926;28;20672;-67
2021/01/12 09:39:18;;;;;;;68.25;28.13;;;;;;;-3.40;84.52;100288.19;5035330;28;20132;-67
2021/01/12 09:41:44;;;;;;;78.32;26.10;;;;;;;-3.47;84.81;100271.72;5053439;28;20552;-67
2021/01/12 09:44:09;;;;;;;70.40;25.60;;;;;;;-3.36;84.31;100277.78;5035675;28;20032;-67
2021/01/12 09:46:36;;;;;;;76.93;26.40;;;;;;;-3.33;85.20;100292.53;5053362;28;20035;-67
2021/01/12 09:49:02;;;;;;;73.47;27.88;;;;;;;-3.19;84.93;100290.72;5035728;28;20029;-68
2021/01/12 09:51:27;;;;;;;73.40;27.60;;;;;;;-3.20;84.32;100278.56;5053438;28;20087;-67
2021/01/12 09:53:53;;;;;;;75.07;27.92;;;;;;;-3.21;84.02;100269.00;5035647;28;20029;-68
2021/01/12 09:56:21;;;;;;;72.28;27.70;;;;;;;-3.18;83.91;100280.31;5053358;28;20119;-68
2021/01/12 09:58:51;;;;;;;80.30;27.88;;;;;;;-3.43;84.48;100272.56;5035444;28;20032;-68
2021/01/12 10:01:18;;;;;;;69.72;26.88;;;;;;;-3.40;85.33;100255.16;5053063;28;20437;-70
2021/01/12 10:03:44;;;;;;;75.45;27.05;;;;;;;-3.23;85.06;100273.38;5053122;28;20063;-69
2021/01/12 10:06:22;;;;;;;75.07;28.50;;;;;;;-3.39;85.13;100250.81;5045346;28;20036;-68
2021/01/12 10:08:48;;;;;;;70.53;28.45;;;;;;;-3.34;85.68;100267.34;5033178;28;20116;-69
2021/01/12 10:11:15;;;;;;;81.57;29.77;;;;;;;-3.18;85.45;100262.06;5033288;28;20041;-68
2021/01/12 10:13:43;;;;;;;75.18;29.23;;;;;;;-3.22;84.96;100265.53;5033197;28;20034;-70
2021/01/12 10:16:08;;;;;;;81.47;30.27;;;;;;;-3.36;85.06;100251.69;5015853;28;20044;-69
2021/01/12 10:18:34;;;;;;;81.00;30.45;;;;;;;-3.42;85.91;100250.84;5033023;28;20400;-68
2021/01/12 10:20:59;;;;;;;82.47;29.88;;;;;;;-3.37;85.87;100260.41;4998995;28;20457;-67
2021/01/12 10:23:25;;;;;;;84.07;29.90;;;;;;;-3.25;85.84;100252.50;5033283;28;20033;-66
2021/01/12 10:25:51;;;;;;;75.78;29.58;;;;;;;-3.17;85.88;100248.13;5032937;28;20034;-67
2021/01/12 10:28:16;;;;;;;75.30;29.20;;;;;;;-3.28;86.21;100244.72;5033261;28;20037;-66
2021/01/12 10:30:42;;;;;;;85.60;31.55;;;;;;;-3.28;86.98;100249.03;5032802;28;20033;-68
2021/01/12 10:33:08;;;;;;;78.35;29.10;;;;;;;-3.17;86.66;100231.63;5033125;28;20036;-68
2021/01/12 10:35:33;;;;;;;79.68;28.73;;;;;;;-3.31;85.71;100183.84;5001432;28;20034;-68
2021/01/12 10:37:59;;;;;;;84.97;29.40;;;;;;;-3.17;86.20;100218.56;5052709;28;20175;-69
2021/01/12 10:40:25;;;;;;;74.20;28.95;;;;;;;-3.10;85.72;100217.63;5035030;28;20037;-69
2021/01/12 10:42:52;;;;;;;84.30;29.65;;;;;;;-3.15;86.20;100208.97;5052798;28;20033;-68
2021/01/12 10:45:17;;;;;;;81.00;30.42;;;;;;;-3.12;86.66;100200.25;5052633;28;20029;-68
2021/01/12 10:47:45;;;;;;;84.22;30.98;;;;;;;-2.98;86.41;100207.16;5052807;28;20036;-68
2021/01/12 10:50:13;;;;;;;73.03;28.70;;;;;;;-3.09;85.48;100161.97;5052837;28;20064;-67
2021/01/12 10:52:39;;;;;;;79.90;29.52;;;;;;;-2.89;85.77;100196.66;5052825;28;20032;-68
2021/01/12 10:55:06;;;;;;;78.90;29.27;;;;;;;-3.17;85.33;100148.13;5038610;28;20037;-67
2021/01/12 10:57:31;;;;;;;81.32;30.83;;;;;;;-2.92;85.83;100183.59;5056531;28;20038;-67
2021/01/12 10:59:58;;;;;;;80.20;29.92;;;;;;;-2.78;85.31;100185.28;5037780;28;20057;-67
2021/01/12 11:02:23;;;;;;;77.47;30.63;;;;;;;-2.94;84.54;100140.13;5056418;28;20036;-67
2021/01/12 11:04:48;;;;;;;84.15;31.10;;;;;;;-2.76;85.12;100167.84;5052450;28;20037;-74
2021/01/12 11:07:15;;;;;;;79.43;29.92;;;;;;;-2.70;84.85;100176.50;5045614;28;20041;-67
2021/01/12 11:09:40;;;;;;;85.75;29.88;;;;;;;-3.00;85.24;100108.84;5048367;28;20041;-66
2021/01/12 11:12:09;;;;;;;86.93;31.67;;;;;;;-2.80;85.69;100153.06;5037872;28;20464;-66